createdAt,value
2018-11-02T00:00:16.281Z,100462.22
2018-11-02T00:02:47.939Z,100462.45
2018-11-02T00:05:19.048Z,100469.91
2018-11-02T00:07:50.107Z,100471.52
2018-11-02T00:10:21.143Z,100474.77
2018-11-02T00:12:52.186Z,100472.08
2018-11-02T00:15:23.258Z,100481.54
2018-11-02T00:18:00.231Z,100481.14
2018-11-02T00:20:31.434Z,100484.22
2018-11-02T00:23:02.782Z,100484.14
2018-11-02T00:25:34.274Z,100486.30
2018-11-02T00:28:05.374Z,100491.41
2018-11-02T00:30:36.552Z,100496.09
2018-11-02T00:33:07.976Z,100503.02
2018-11-02T00:35:39.199Z,100509.02
2018-11-02T00:38:12.848Z,100507.53
2018-11-02T00:40:43.928Z,100519.48
2018-11-02T00:43:15.008Z,100520.23
2018-11-02T00:45:46.417Z,100527.17
2018-11-02T00:48:17.476Z,100533.55
2018-11-02T00:50:48.611Z,100528.03
2018-11-02T00:53:20.067Z,100536.09
2018-11-02T00:55:51.316Z,100530.24
2018-11-02T00:58:22.500Z,100534.31
2018-11-02T01:00:53.752Z,100523.77
2018-11-02T01:03:24.891Z,100515.30
2018-11-02T01:05:56.238Z,100491.59
2018-11-02T01:08:27.701Z,100472.88
2018-11-02T01:10:58.827Z,100479.67
2018-11-02T01:13:29.849Z,100462.92
2018-11-02T01:16:00.896Z,100478.47
2018-11-02T01:18:33.424Z,100487.69
2018-11-02T01:21:04.914Z,100499.25
2018-11-02T01:23:36.457Z,100516.26
2018-11-02T01:26:12.149Z,100512.61
2018-11-02T01:28:46.072Z,100524.14
2018-11-02T01:31:17.156Z,100536.31
2018-11-02T01:33:51.135Z,100548.23
2018-11-02T01:36:23.064Z,100543.16
2018-11-02T01:38:54.528Z,100553.47
2018-11-02T01:41:27.976Z,100559.16
2018-11-02T01:43:59.018Z,100555.47
2018-11-02T01:46:32.740Z,100547.08
2018-11-02T01:49:03.714Z,100543.55
2018-11-02T01:51:35.121Z,100556.17
2018-11-02T01:54:06.379Z,100551.95
2018-11-02T01:56:37.466Z,100564.72
2018-11-02T01:59:08.865Z,100567.08
2018-11-02T02:01:44.693Z,100563.77
2018-11-02T02:04:16.218Z,100568.64
2018-11-02T02:06:47.601Z,100568.94
2018-11-02T02:09:18.685Z,100570.15
2018-11-02T02:11:49.802Z,100580.61
2018-11-02T02:14:20.840Z,100580.79
2018-11-02T02:16:52.169Z,100594.77
2018-11-02T02:19:23.425Z,100591.76
2018-11-02T02:21:54.449Z,100597.98
2018-11-02T02:24:25.848Z,100595.91
2018-11-02T02:27:13.531Z,100601.76
2018-11-02T02:29:44.665Z,100600.83
2018-11-02T02:32:15.973Z,100608.44
2018-11-02T02:34:47.204Z,100624.13
2018-11-02T02:37:18.328Z,100621.20
2018-11-02T02:39:52.764Z,100621.20
2018-11-02T02:42:24.878Z,100633.67
2018-11-02T02:44:55.892Z,100629.90
2018-11-02T02:47:26.988Z,100633.05
2018-11-02T02:50:01.160Z,100634.04
2018-11-02T02:52:32.208Z,100630.30
2018-11-02T02:55:05.521Z,100640.75
2018-11-02T02:57:40.140Z,100632.75
2018-11-02T03:00:15.463Z,100636.03
2018-11-02T03:02:47.129Z,100634.27
2018-11-02T03:05:18.253Z,100647.11
2018-11-02T03:07:52.443Z,100655.13
2018-11-02T03:10:24.071Z,100657.26
2018-11-02T03:12:55.532Z,100667.12
2018-11-02T03:15:27.670Z,100671.05
2018-11-02T03:18:06.441Z,100677.89
2018-11-02T03:20:37.655Z,100691.98
2018-11-02T03:23:08.845Z,100680.98
2018-11-02T03:25:40.103Z,100694.37
2018-11-02T03:28:11.173Z,100685.76
2018-11-02T03:30:44.191Z,100694.37
2018-11-02T03:33:15.249Z,100691.22
2018-11-02T03:35:46.574Z,100696.67
2018-11-02T03:38:18.022Z,100692.75
2018-11-02T03:40:49.198Z,100695.05
2018-11-02T03:43:20.199Z,100701.45
2018-11-02T03:45:54.955Z,100713.75
2018-11-02T03:48:26.340Z,100711.45
2018-11-02T03:50:59.971Z,100713.19
2018-11-02T03:53:30.978Z,100714.89
2018-11-02T03:56:02.497Z,100724.41
2018-11-02T03:58:33.672Z,100730.04
2018-11-02T04:01:04.794Z,100737.15
2018-11-02T04:03:35.847Z,100747.47
2018-11-02T04:06:08.180Z,100742.20
2018-11-02T04:08:39.211Z,100756.27
2018-11-02T04:11:15.294Z,100753.98
2018-11-02T04:13:52.275Z,100763.99
2018-11-02T04:16:25.672Z,100764.59
2018-11-02T04:18:56.748Z,100777.60
2018-11-02T04:21:36.946Z,100770.98
2018-11-02T04:24:08.557Z,100774.22
2018-11-02T04:26:40.039Z,100782.52
2018-11-02T04:29:15.229Z,100786.35
2018-11-02T04:31:46.292Z,100786.89
2018-11-02T04:34:17.733Z,100793.96
2018-11-02T04:36:48.780Z,100800.36
2018-11-02T04:39:26.359Z,100810.50
2018-11-02T04:41:59.467Z,100813.97
2018-11-02T04:44:30.528Z,100817.70
2018-11-02T04:47:07.352Z,100823.66
2018-11-02T04:49:38.615Z,100822.83
2018-11-02T04:52:09.625Z,100828.88
2018-11-02T04:54:43.888Z,100832.72
2018-11-02T04:57:17.595Z,100839.28
2018-11-02T04:59:50.620Z,100846.32
2018-11-02T05:02:22.376Z,100853.26
2018-11-02T05:04:53.460Z,100865.20
2018-11-02T05:07:24.912Z,100874.53
2018-11-02T05:09:57.235Z,100873.36
2018-11-02T05:12:28.326Z,100882.83
2018-11-02T05:14:59.838Z,100885.93
2018-11-02T05:17:31.872Z,100887.61
2018-11-02T05:20:02.991Z,100903.29
2018-11-02T05:22:34.399Z,100897.05
2018-11-02T05:25:05.891Z,100904.61
2018-11-02T05:27:39.873Z,100913.56
2018-11-02T05:30:11.890Z,100921.06
2018-11-02T05:32:42.956Z,100928.53
2018-11-02T05:35:17.498Z,100934.94
2018-11-02T05:37:48.573Z,100946.63
2018-11-02T05:40:19.648Z,100957.00
2018-11-02T05:42:51.858Z,100967.73
2018-11-02T05:45:25.284Z,100970.02
2018-11-02T05:47:56.530Z,100980.27
2018-11-02T05:50:27.797Z,100983.00
2018-11-02T05:52:59.002Z,100997.05
2018-11-02T05:55:30.072Z,101002.27
2018-11-02T05:58:01.182Z,101002.19
2018-11-02T06:00:32.253Z,101013.41
2018-11-02T06:03:03.379Z,101024.27
2018-11-02T06:05:36.199Z,101031.41
2018-11-02T06:08:07.612Z,101026.29
2018-11-02T06:10:43.113Z,101033.05
2018-11-02T06:13:14.719Z,101036.38
2018-11-02T06:15:46.093Z,101038.42
2018-11-02T06:18:17.196Z,101044.42
2018-11-02T06:20:48.814Z,101053.53
2018-11-02T06:23:19.885Z,101043.91
2018-11-02T06:25:50.977Z,101057.83
2018-11-02T06:28:22.070Z,101058.31
2018-11-02T06:30:54.076Z,101059.95
2018-11-02T06:33:26.977Z,101060.81
2018-11-02T06:35:58.099Z,101070.62
2018-11-02T06:38:29.637Z,101086.17
2018-11-02T06:41:00.865Z,101091.32
2018-11-02T06:43:32.844Z,101097.17
2018-11-02T06:46:06.613Z,101099.62
2018-11-02T06:48:37.974Z,101100.41
2018-11-02T06:51:09.765Z,101107.58
2018-11-02T06:53:55.073Z,101114.92
2018-11-02T06:56:26.133Z,101126.33
2018-11-02T06:59:00.358Z,101129.88
2018-11-02T07:01:35.887Z,101142.97
2018-11-02T07:04:07.049Z,101152.31
2018-11-02T07:06:38.153Z,101154.71
2018-11-02T07:10:08.886Z,101153.74
2018-11-02T07:12:46.634Z,101146.95
2018-11-02T07:15:18.969Z,101171.57
2018-11-02T07:17:51.716Z,101179.95
2018-11-02T07:20:26.010Z,101179.47
2018-11-02T07:23:07.620Z,101179.85
2018-11-02T07:25:38.534Z,101189.64
2018-11-02T07:28:11.293Z,101195.48
2018-11-02T07:30:43.127Z,101192.45
2018-11-02T07:33:19.126Z,101202.34
2018-11-02T07:35:50.237Z,101209.42
2018-11-02T07:38:21.915Z,101218.56
2018-11-02T07:40:53.666Z,101209.53
2018-11-02T07:43:25.153Z,101214.47
2018-11-02T07:46:01.320Z,101215.30
2018-11-02T07:48:32.958Z,101215.78
2018-11-02T07:51:07.874Z,101222.69
2018-11-02T07:53:43.721Z,101212.66
2018-11-02T07:56:14.760Z,101224.75
2018-11-02T07:58:45.807Z,101225.30
2018-11-02T08:01:17.818Z,101237.63
2018-11-02T08:03:53.137Z,101238.59
2018-11-02T08:06:25.822Z,101244.33
2018-11-02T08:08:58.254Z,101236.77
2018-11-02T08:11:29.356Z,101244.25
2018-11-02T08:14:01.257Z,101256.42
2018-11-02T08:16:32.809Z,101254.36
2018-11-02T08:19:03.914Z,101257.83
2018-11-02T08:21:35.325Z,101254.77
2018-11-02T08:24:06.514Z,101262.33
2018-11-02T08:26:37.910Z,101269.89
2018-11-02T08:29:08.995Z,101269.72
2018-11-02T08:31:40.327Z,101270.47
2018-11-02T08:34:11.391Z,101271.58
2018-11-02T08:36:42.788Z,101265.66
2018-11-02T08:39:14.219Z,101266.00
2018-11-02T08:41:45.709Z,101274.36
2018-11-02T08:44:16.734Z,101266.45
2018-11-02T08:49:21.975Z,101266.52
2018-11-02T08:51:53.024Z,101278.06
2018-11-02T08:54:24.150Z,101277.45
2018-11-02T08:56:55.212Z,101273.31
2018-11-02T08:59:26.431Z,101271.39
2018-11-02T09:01:57.341Z,101281.00
2018-11-02T09:04:28.629Z,101286.50
2018-11-02T09:07:03.201Z,101296.47
2018-11-02T09:09:34.149Z,101295.75
2018-11-02T09:12:05.236Z,101297.41
2018-11-02T09:14:36.446Z,101302.53
2018-11-02T09:17:08.608Z,101296.59
2018-11-02T09:19:39.679Z,101298.62
2018-11-02T09:22:10.842Z,101304.63
2018-11-02T09:24:41.892Z,101311.47
2018-11-02T09:27:13.227Z,101317.00
2018-11-02T09:29:45.317Z,101332.95
2018-11-02T09:32:16.772Z,101327.52
2018-11-02T09:34:47.824Z,101328.44
2018-11-02T09:37:20.175Z,101342.88
2018-11-02T09:39:51.221Z,101344.88
2018-11-02T09:44:52.511Z,101349.90
2018-11-02T09:47:23.558Z,101361.90
2018-11-02T09:49:54.687Z,101363.09
2018-11-02T09:52:26.165Z,101375.51
2018-11-02T09:55:01.291Z,101382.94
2018-11-02T09:57:32.773Z,101371.19
2018-11-02T10:00:03.758Z,101385.89
2018-11-02T10:02:34.835Z,101389.91
2018-11-02T10:05:06.918Z,101391.34
2018-11-02T10:07:39.139Z,101399.57
2018-11-02T10:10:11.676Z,101394.86
2018-11-02T10:12:44.580Z,101407.48
2018-11-02T10:15:16.522Z,101397.81
2018-11-02T10:17:47.868Z,101413.73
2018-11-02T10:20:19.096Z,101410.95
2018-11-02T10:22:50.607Z,101414.98
2018-11-02T10:25:21.683Z,101412.52
2018-11-02T10:27:53.348Z,101409.03
2018-11-02T10:30:24.429Z,101420.48
2018-11-02T10:32:57.750Z,101426.58
2018-11-02T10:35:29.345Z,101435.52
2018-11-02T10:38:01.821Z,101432.70
2018-11-02T10:40:35.156Z,101428.16
2018-11-02T10:43:09.961Z,101432.75
2018-11-02T10:45:46.869Z,101446.37
2018-11-02T10:48:17.926Z,101443.37
2018-11-02T10:50:54.586Z,101446.16
2018-11-02T10:53:26.084Z,101445.16
2018-11-02T10:55:57.687Z,101449.32
2018-11-02T10:58:28.759Z,101452.52
2018-11-02T11:01:17.476Z,101452.18
2018-11-02T11:03:48.525Z,101455.77
2018-11-02T11:06:19.637Z,101449.91
2018-11-02T11:08:51.050Z,101459.50
2018-11-02T11:11:22.618Z,101462.53
2018-11-02T11:13:53.718Z,101466.19
2018-11-02T11:16:25.081Z,101468.70
2018-11-02T11:18:56.198Z,101475.92
2018-11-02T11:21:30.954Z,101471.11
2018-11-02T11:24:01.867Z,101470.48
2018-11-02T11:26:32.927Z,101471.10
2018-11-02T11:29:03.983Z,101476.30
2018-11-02T11:31:35.407Z,101475.67
2018-11-02T11:34:07.842Z,101474.37
2018-11-02T11:36:39.200Z,101473.74
2018-11-02T11:39:16.553Z,101478.77
2018-11-02T11:41:47.622Z,101477.04
2018-11-02T11:44:19.150Z,101478.20
2018-11-02T11:46:50.255Z,101483.67
2018-11-02T11:49:22.248Z,101477.00
2018-11-02T11:51:53.326Z,101483.16
2018-11-02T11:54:26.806Z,101472.00
2018-11-02T11:56:59.619Z,101478.47
2018-11-02T11:59:43.427Z,101478.19
2018-11-02T12:02:15.646Z,101478.78
2018-11-02T12:04:48.568Z,101485.59
2018-11-02T12:07:21.632Z,101492.50
2018-11-02T12:09:52.712Z,101487.08
2018-11-02T12:12:23.840Z,101497.03
2018-11-02T12:14:55.963Z,101501.47
2018-11-02T12:17:27.473Z,101501.06
2018-11-02T12:19:59.143Z,101501.98
2018-11-02T12:22:30.229Z,101505.61
2018-11-02T12:25:01.405Z,101499.69
2018-11-02T12:27:32.808Z,101506.81
2018-11-02T12:30:05.222Z,101505.68
2018-11-02T12:32:37.922Z,101511.25
2018-11-02T12:35:10.891Z,101515.79
2018-11-02T12:37:42.341Z,101509.59
2018-11-02T12:40:15.146Z,101505.44
2018-11-02T12:42:47.092Z,101512.73
2018-11-02T12:45:20.283Z,101518.05
2018-11-02T12:47:54.578Z,101516.70
2018-11-02T12:50:27.899Z,101523.59
2018-11-02T12:53:00.049Z,101518.67
2018-11-02T12:55:31.825Z,101509.66
2018-11-02T12:58:07.603Z,101517.70
2018-11-02T13:00:39.883Z,101519.36
2018-11-02T13:03:12.963Z,101525.11
2018-11-02T13:05:45.029Z,101531.24
2018-11-02T13:08:17.207Z,101525.22
2018-11-02T13:10:48.153Z,101535.14
2018-11-02T13:13:19.287Z,101525.81
2018-11-02T13:15:51.250Z,101531.70
2018-11-02T13:18:22.655Z,101528.19
2018-11-02T13:20:57.285Z,101532.98
2018-11-02T13:23:28.372Z,101540.66
2018-11-02T13:26:00.163Z,101538.87
2018-11-02T13:28:31.119Z,101532.91
2018-11-02T13:31:05.506Z,101540.28
2018-11-02T13:33:40.948Z,101548.81
2018-11-02T13:36:12.197Z,101552.56
2018-11-02T13:38:43.588Z,101555.53
2018-11-02T13:41:15.076Z,101559.42
2018-11-02T13:43:46.203Z,101565.95
2018-11-02T13:46:21.585Z,101563.83
2018-11-02T13:48:54.237Z,101555.70
2018-11-02T13:51:26.690Z,101556.91
2018-11-02T13:53:59.078Z,101570.09
2018-11-02T13:56:31.270Z,101569.95
2018-11-02T13:59:03.302Z,101571.77
2018-11-02T14:01:35.691Z,101573.05
2018-11-02T14:04:06.893Z,101586.03
2018-11-02T14:06:37.945Z,101588.55
2018-11-02T14:09:09.952Z,101593.71
2018-11-02T14:11:41.540Z,101596.67
2018-11-02T14:14:12.609Z,101603.21
2018-11-02T14:16:43.662Z,101607.72
2018-11-02T14:19:17.421Z,101614.13
2018-11-02T14:21:48.318Z,101625.97
2018-11-02T14:24:19.388Z,101623.66
2018-11-02T14:26:50.525Z,101630.20
2018-11-02T14:29:23.265Z,101632.58
2018-11-02T14:32:00.248Z,101647.06
2018-11-02T14:34:35.947Z,101649.78
2018-11-02T14:37:07.472Z,101649.20
2018-11-02T14:39:39.283Z,101654.75
2018-11-02T14:42:10.325Z,101653.38
2018-11-02T14:44:41.547Z,101656.86
2018-11-02T14:47:12.653Z,101661.23
2018-11-02T14:49:44.372Z,101666.02
2018-11-02T14:52:15.433Z,101665.73
2018-11-02T14:54:47.699Z,101682.54
2018-11-02T14:57:24.350Z,101685.03
2018-11-02T14:59:55.857Z,101689.33
2018-11-02T15:02:26.968Z,101694.16
2018-11-02T15:05:02.781Z,101692.81
2018-11-02T15:07:33.901Z,101696.36
2018-11-02T15:10:06.120Z,101706.22
2018-11-02T15:12:37.443Z,101707.02
2018-11-02T15:15:09.261Z,101702.67
2018-11-02T15:17:46.967Z,101708.73
2018-11-02T15:20:18.084Z,101713.97
2018-11-02T15:22:49.204Z,101714.06
2018-11-02T15:25:23.158Z,101723.45
2018-11-02T15:27:57.675Z,101717.48
2018-11-02T15:30:37.495Z,101715.63
2018-11-02T15:33:12.494Z,101714.48
2018-11-02T15:35:43.534Z,101727.31
2018-11-02T15:38:16.857Z,101726.10
2018-11-02T15:40:48.290Z,101727.86
2018-11-02T15:43:19.506Z,101727.92
2018-11-02T15:45:56.200Z,101737.45
2018-11-02T15:48:35.784Z,101729.59
2018-11-02T15:51:09.389Z,101740.41
2018-11-02T15:53:40.754Z,101740.16
2018-11-02T15:56:24.643Z,101745.09
2018-11-02T15:58:55.698Z,101745.19
2018-11-02T16:01:26.988Z,101743.02
2018-11-02T16:04:04.210Z,101743.91
2018-11-02T16:06:40.636Z,101741.34
2018-11-02T16:09:18.315Z,101739.24
2018-11-02T16:11:49.363Z,101737.70
2018-11-02T16:14:20.539Z,101739.16
2018-11-02T16:16:51.504Z,101738.83
2018-11-02T16:19:22.521Z,101741.05
2018-11-02T16:21:53.545Z,101755.87
2018-11-02T16:24:24.592Z,101754.21
2018-11-02T16:26:56.024Z,101759.44
2018-11-02T16:29:27.082Z,101760.39
2018-11-02T16:32:06.509Z,101760.03
2018-11-02T16:34:37.670Z,101771.91
2018-11-02T16:37:08.720Z,101781.62
2018-11-02T16:39:39.773Z,101778.64
2018-11-02T16:42:10.841Z,101776.03
2018-11-02T16:44:42.327Z,101783.09
2018-11-02T16:47:13.386Z,101785.92
2018-11-02T16:49:44.455Z,101794.66
2018-11-02T16:52:15.513Z,101795.23
2018-11-02T16:54:46.677Z,101800.12
2018-11-02T16:57:19.178Z,101813.69
2018-11-02T16:59:50.596Z,101820.37
2018-11-02T17:02:21.700Z,101827.63
2018-11-02T17:04:53.170Z,101820.94
2018-11-02T17:07:24.181Z,101824.55
2018-11-02T17:09:55.222Z,101836.31
2018-11-02T17:12:26.410Z,101849.52
2018-11-02T17:14:57.430Z,101845.66
2018-11-02T17:17:28.766Z,101853.98
2018-11-02T17:19:59.991Z,101856.17
2018-11-02T17:22:31.643Z,101867.35
2018-11-02T17:25:03.086Z,101869.97
2018-11-02T17:27:34.159Z,101870.11
2018-11-02T17:30:05.796Z,101878.38
2018-11-02T17:32:37.175Z,101886.69
2018-11-02T17:35:09.919Z,101889.75
2018-11-02T17:37:49.152Z,101892.42
2018-11-02T17:40:21.440Z,101902.00
2018-11-02T17:42:53.928Z,101898.66
2018-11-02T17:45:25.792Z,101913.84
2018-11-02T17:47:58.059Z,101913.16
2018-11-02T17:50:29.398Z,101920.23
2018-11-02T17:53:00.444Z,101918.50
2018-11-02T17:55:31.453Z,101916.39
2018-11-02T17:58:02.553Z,101925.95
2018-11-02T18:00:34.748Z,101930.30
2018-11-02T18:03:06.109Z,101931.17
2018-11-02T18:05:37.163Z,101937.34
2018-11-02T18:08:08.268Z,101939.25
2018-11-02T18:10:39.716Z,101940.72
2018-11-02T18:13:10.776Z,101941.29
2018-11-02T18:15:41.871Z,101946.22
2018-11-02T18:18:13.076Z,101944.05
2018-11-02T18:20:44.169Z,101948.04
2018-11-02T18:23:15.548Z,101956.84
2018-11-02T18:25:46.616Z,101954.02
2018-11-02T18:28:18.209Z,101961.94
2018-11-02T18:30:49.635Z,101963.78
2018-11-02T18:33:20.788Z,101972.44
2018-11-02T18:35:52.121Z,101968.61
2018-11-02T18:38:23.177Z,101966.89
2018-11-02T18:40:55.178Z,101980.83
2018-11-02T18:43:28.353Z,101982.67
2018-11-02T18:46:05.872Z,101993.20
2018-11-02T18:48:40.454Z,101989.44
2018-11-02T18:51:11.572Z,101990.41
2018-11-02T18:53:47.022Z,101996.92
2018-11-02T18:56:23.453Z,102004.30
2018-11-02T18:58:51.836Z,102006.91
2018-11-02T19:01:22.977Z,102006.42
2018-11-02T19:03:54.375Z,102005.51
2018-11-02T19:06:27.285Z,102009.37
2018-11-02T19:09:00.634Z,102017.97
2018-11-02T19:11:31.948Z,102021.05
2018-11-02T19:14:03.017Z,102035.48
2018-11-02T19:16:34.428Z,102037.36
2018-11-02T19:19:05.845Z,102030.55
2018-11-02T19:21:37.121Z,102041.45
2018-11-02T19:24:08.594Z,102038.84
2018-11-02T19:26:40.067Z,102043.27
2018-11-02T19:29:11.266Z,102044.17
2018-11-02T19:31:45.545Z,102052.16
2018-11-02T19:34:16.901Z,102058.75
2018-11-02T19:36:47.925Z,102054.49
2018-11-02T19:39:19.159Z,102065.34
2018-11-02T19:41:50.750Z,102062.78
2018-11-02T19:44:22.911Z,102063.25
2018-11-02T19:46:57.331Z,102065.34
2018-11-02T19:49:28.607Z,102061.39
2018-11-02T19:51:59.922Z,102061.36
2018-11-02T19:54:32.184Z,102065.30
2018-11-02T19:57:03.965Z,102060.97
2018-11-02T19:59:35.124Z,102066.64
2018-11-02T20:02:06.775Z,102069.45
2018-11-02T20:04:38.195Z,102068.18
2018-11-02T20:07:12.443Z,102076.39
2018-11-02T20:09:43.527Z,102070.79
2018-11-02T20:12:14.666Z,102072.52
2018-11-02T20:14:46.143Z,102072.09
2018-11-02T20:17:17.197Z,102077.73
2018-11-02T20:19:48.340Z,102075.99
2018-11-02T20:22:19.448Z,102088.97
2018-11-02T20:24:51.186Z,102089.44
2018-11-02T20:27:23.031Z,102088.97
2018-11-02T20:29:54.108Z,102099.89
2018-11-02T20:32:28.045Z,102103.84
2018-11-02T20:35:01.787Z,102104.34
2018-11-02T20:37:35.839Z,102103.08
2018-11-02T20:40:11.406Z,102091.56
2018-11-02T20:42:46.012Z,102102.00
2018-11-02T20:45:22.708Z,102098.20
2018-11-02T20:47:57.028Z,102102.16
2018-11-02T20:50:31.128Z,102102.62
2018-11-02T20:53:05.154Z,102107.36
2018-11-02T20:55:38.584Z,102096.56
2018-11-02T20:58:11.792Z,102099.16
2018-11-02T21:00:52.555Z,102099.19
2018-11-02T21:03:29.108Z,102101.79
2018-11-02T21:06:02.829Z,102100.58
2018-11-02T21:08:39.179Z,102104.16
2018-11-02T21:11:12.756Z,102108.52
2018-11-02T21:13:46.472Z,102109.44
2018-11-02T21:16:19.977Z,102119.03
2018-11-02T21:18:53.330Z,102111.26
2018-11-02T21:21:27.388Z,102117.34
2018-11-02T21:24:05.985Z,102124.69
2018-11-02T21:26:40.620Z,102125.12
2018-11-02T21:29:17.284Z,102126.39
2018-11-02T21:31:52.022Z,102128.58
2018-11-02T21:34:27.069Z,102138.55
2018-11-02T21:37:00.606Z,102137.63
2018-11-02T21:39:33.059Z,102141.94
2018-11-02T21:42:05.913Z,102140.64
2018-11-02T21:44:38.557Z,102132.41
2018-11-02T21:47:12.427Z,102142.34
2018-11-02T21:49:45.911Z,102147.14
2018-11-02T21:52:24.622Z,102143.27
2018-11-02T21:54:58.320Z,102136.77
2018-11-02T21:57:31.347Z,102133.38
2018-11-02T22:00:03.253Z,102135.16
2018-11-02T22:02:37.442Z,102133.88
2018-11-02T22:05:12.663Z,102138.19
2018-11-02T22:07:47.073Z,102143.80
2018-11-02T22:10:19.329Z,102145.55
2018-11-02T22:12:52.016Z,102155.52
2018-11-02T22:15:23.182Z,102154.67
2018-11-02T22:17:59.272Z,102152.50
2018-11-02T22:20:31.825Z,102156.86
2018-11-02T22:23:03.041Z,102152.56
2018-11-02T22:25:34.170Z,102159.94
2018-11-02T22:28:05.369Z,102159.06
2018-11-02T22:30:36.536Z,102156.48
2018-11-02T22:33:07.583Z,102164.27
2018-11-02T22:35:38.641Z,102168.58
2018-11-02T22:38:11.589Z,102166.43
2018-11-02T22:40:42.808Z,102158.68
2018-11-02T22:43:17.238Z,102167.80
2018-11-02T22:45:48.207Z,102156.13
2018-11-02T22:48:26.237Z,102162.62
2018-11-02T22:50:58.033Z,102160.47
2018-11-02T22:53:29.357Z,102168.77
2018-11-02T22:56:00.518Z,102171.42
2018-11-02T22:58:32.368Z,102168.87
2018-11-02T23:01:20.982Z,102160.66
2018-11-02T23:03:52.024Z,102156.36
2018-11-02T23:06:23.170Z,102157.27
2018-11-02T23:08:54.905Z,102171.14
2018-11-02T23:11:26.024Z,102169.42
2018-11-02T23:13:57.208Z,102170.75
2018-11-02T23:16:28.603Z,102166.05
2018-11-02T23:18:59.932Z,102177.34
2018-11-02T23:21:30.979Z,102184.29
2018-11-02T23:24:02.370Z,102183.39
2018-11-02T23:26:33.825Z,102184.69
2018-11-02T23:29:04.891Z,102181.24
2018-11-02T23:31:37.198Z,102184.29
2018-11-02T23:34:08.557Z,102181.68
2018-11-02T23:36:40.301Z,102179.09
2018-11-02T23:39:11.737Z,102183.41
2018-11-02T23:41:42.766Z,102180.84
2018-11-02T23:44:14.267Z,102190.34
2018-11-02T23:46:45.286Z,102197.70
2018-11-02T23:49:16.446Z,102192.91
2018-11-02T23:51:48.193Z,102198.53
2018-11-02T23:54:25.667Z,102202.41
2018-11-02T23:56:56.995Z,102186.37
2018-11-02T23:59:28.059Z,102192.00
